sensor_id;sensor_type;location;lat;lon;timestamp;noise_LAeq;noise_LA_min;noise_LA_max;noise_LA01;noise_LA95
74504;Laerm;62988;55.776;37.544;2022-11-15T00:00:50;46.76;39.32;57.33;;
74504;Laerm;62988;55.776;37.544;2022-11-15T00:03:17;46.40;38.31;57.36;;
74504;Laerm;62988;55.776;37.544;2022-11-15T00:05:43;46.31;38.94;55.77;;
74504;Laerm;62988;55.776;37.544;2022-11-15T00:08:09;44.69;39.07;55.04;;
74504;Laerm;62988;55.776;37.544;2022-11-15T00:10:36;44.48;37.00;50.12;;
74504;Laerm;62988;55.776;37.544;2022-11-15T00:13:10;45.49;38.88;55.77;;
74504;Laerm;62988;55.776;37.544;2022-11-15T00:15:37;46.39;39.67;53.29;;
74504;Laerm;62988;55.776;37.544;2022-11-15T00:18:04;47.73;36.77;62.30;;
74504;Laerm;62988;55.776;37.544;2022-11-15T00:20:30;46.25;39.14;55.51;;
74504;Laerm;62988;55.776;37.544;2022-11-15T00:22:56;45.07;38.24;53.38;;
74504;Laerm;62988;55.776;37.544;2022-11-15T00:25:21;46.44;38.03;57.11;;
74504;Laerm;62988;55.776;37.544;2022-11-15T00:27:47;48.21;36.44;59.55;;
74504;Laerm;62988;55.776;37.544;2022-11-15T00:30:12;45.81;39.23;57.65;;
74504;Laerm;62988;55.776;37.544;2022-11-15T00:32:38;46.19;39.54;54.44;;
74504;Laerm;62988;55.776;37.544;2022-11-15T00:35:04;47.55;39.20;56.66;;
74504;Laerm;62988;55.776;37.544;2022-11-15T00:37:30;44.19;38.27;55.70;;
74504;Laerm;62988;55.776;37.544;2022-11-15T00:39:55;45.22;39.60;55.35;;
74504;Laerm;62988;55.776;37.544;2022-11-15T00:42:21;43.69;37.77;52.78;;
74504;Laerm;62988;55.776;37.544;2022-11-15T00:44:46;45.82;38.91;54.04;;
74504;Laerm;62988;55.776;37.544;2022-11-15T00:47:12;45.94;37.02;58.57;;
74504;Laerm;62988;55.776;37.544;2022-11-15T00:49:37;44.06;37.02;51.67;;
74504;Laerm;62988;55.776;37.544;2022-11-15T00:52:03;46.67;39.69;54.43;;
74504;Laerm;62988;55.776;37.544;2022-11-15T00:54:28;45.20;37.89;55.14;;
74504;Laerm;62988;55.776;37.544;2022-11-15T00:56:54;45.75;39.69;54.24;;
74504;Laerm;62988;55.776;37.544;2022-11-15T00:59:19;48.52;41.31;62.96;;
74504;Laerm;62988;55.776;37.544;2022-11-15T01:01:45;45.81;38.07;60.29;;
74504;Laerm;62988;55.776;37.544;2022-11-15T01:04:10;46.88;39.38;61.40;;
74504;Laerm;62988;55.776;37.544;2022-11-15T01:06:36;45.00;38.16;53.87;;
74504;Laerm;62988;55.776;37.544;2022-11-15T01:09:02;45.64;36.72;56.32;;
74504;Laerm;62988;55.776;37.544;2022-11-15T01:11:27;46.85;38.17;57.18;;
74504;Laerm;62988;55.776;37.544;2022-11-15T01:13:54;44.59;39.15;51.07;;
74504;Laerm;62988;55.776;37.544;2022-11-15T01:16:20;46.83;38.02;56.05;;
74504;Laerm;62988;55.776;37.544;2022-11-15T01:18:46;44.45;37.93;53.61;;
74504;Laerm;62988;55.776;37.544;2022-11-15T01:21:17;47.16;39.12;60.69;;
74504;Laerm;62988;55.776;37.544;2022-11-15T01:23:43;45.83;39.37;53.43;;
74504;Laerm;62988;55.776;37.544;2022-11-15T01:26:12;44.12;37.96;50.66;;
74504;Laerm;62988;55.776;37.544;2022-11-15T01:28:40;45.03;38.37;52.69;;
74504;Laerm;62988;55.776;37.544;2022-11-15T01:31:10;46.71;40.29;62.32;;
74504;Laerm;62988;55.776;37.544;2022-11-15T01:33:36;46.94;41.19;54.65;;
74504;Laerm;62988;55.776;37.544;2022-11-15T01:36:08;47.21;38.78;56.08;;
74504;Laerm;62988;55.776;37.544;2022-11-15T01:38:35;45.82;39.04;55.65;;
74504;Laerm;62988;55.776;37.544;2022-11-15T01:41:01;45.27;38.82;54.53;;
74504;Laerm;62988;55.776;37.544;2022-11-15T01:43:29;45.07;38.63;55.02;;
74504;Laerm;62988;55.776;37.544;2022-11-15T01:46:00;47.10;39.60;59.05;;
74504;Laerm;62988;55.776;37.544;2022-11-15T01:48:33;46.31;38.62;56.49;;
74504;Laerm;62988;55.776;37.544;2022-11-15T01:51:01;45.84;38.37;54.82;;
74504;Laerm;62988;55.776;37.544;2022-11-15T01:53:29;46.91;40.75;55.29;;
74504;Laerm;62988;55.776;37.544;2022-11-15T01:55:55;47.22;39.92;56.55;;
74504;Laerm;62988;55.776;37.544;2022-11-15T01:58:21;45.64;38.40;54.36;;
74504;Laerm;62988;55.776;37.544;2022-11-15T02:00:48;47.34;38.48;56.49;;
74504;Laerm;62988;55.776;37.544;2022-11-15T02:03:15;47.21;40.57;64.31;;
74504;Laerm;62988;55.776;37.544;2022-11-15T02:05:41;46.49;40.35;59.90;;
74504;Laerm;62988;55.776;37.544;2022-11-15T02:08:08;47.83;38.85;60.08;;
74504;Laerm;62988;55.776;37.544;2022-11-15T02:10:45;45.82;40.31;58.99;;
74504;Laerm;62988;55.776;37.544;2022-11-15T02:13:15;46.01;37.78;54.14;;
74504;Laerm;62988;55.776;37.544;2022-11-15T02:15:55;48.09;42.46;54.96;;
74504;Laerm;62988;55.776;37.544;2022-11-15T02:18:52;45.75;40.02;56.14;;
74504;Laerm;62988;55.776;37.544;2022-11-15T02:29:14;48.59;42.18;57.77;;
74504;Laerm;62988;55.776;37.544;2022-11-15T02:32:01;52.99;42.44;74.59;;
74504;Laerm;62988;55.776;37.544;2022-11-15T02:37:16;47.28;39.09;54.83;;
74504;Laerm;62988;55.776;37.544;2022-11-15T02:42:25;48.36;42.72;59.60;;
74504;Laerm;62988;55.776;37.544;2022-11-15T02:45:13;48.55;42.90;55.04;;
74504;Laerm;62988;55.776;37.544;2022-11-15T02:47:43;48.14;41.01;55.91;;
74504;Laerm;62988;55.776;37.544;2022-11-15T02:50:13;50.63;43.06;63.67;;
74504;Laerm;62988;55.776;37.544;2022-11-15T02:52:41;48.63;43.16;56.92;;
74504;Laerm;62988;55.776;37.544;2022-11-15T02:55:29;50.36;43.06;65.48;;
74504;Laerm;62988;55.776;37.544;2022-11-15T03:00:59;49.71;43.28;56.83;;
74504;Laerm;62988;55.776;37.544;2022-11-15T03:06:19;50.73;44.64;56.44;;
74504;Laerm;62988;55.776;37.544;2022-11-15T03:15:14;50.72;45.09;55.97;;
74504;Laerm;62988;55.776;37.544;2022-11-15T03:18:02;50.03;44.44;56.20;;
74504;Laerm;62988;55.776;37.544;2022-11-15T03:20:30;51.57;44.96;61.56;;
74504;Laerm;62988;55.776;37.544;2022-11-15T03:23:01;52.49;46.85;65.71;;
74504;Laerm;62988;55.776;37.544;2022-11-15T03:25:30;54.68;49.36;65.73;;
74504;Laerm;62988;55.776;37.544;2022-11-15T03:27:58;52.12;47.28;63.58;;
74504;Laerm;62988;55.776;37.544;2022-11-15T03:30:27;52.76;47.35;58.83;;
74504;Laerm;62988;55.776;37.544;2022-11-15T03:32:56;52.28;46.28;58.81;;
74504;Laerm;62988;55.776;37.544;2022-11-15T03:35:37;51.94;46.42;57.81;;
74504;Laerm;62988;55.776;37.544;2022-11-15T03:38:26;51.96;46.45;59.30;;
74504;Laerm;62988;55.776;37.544;2022-11-15T03:40:58;51.99;47.54;57.93;;
74504;Laerm;62988;55.776;37.544;2022-11-15T03:43:34;57.23;48.56;72.59;;
74504;Laerm;62988;55.776;37.544;2022-11-15T03:46:06;54.12;48.44;65.66;;
74504;Laerm;62988;55.776;37.544;2022-11-15T03:48:37;54.28;47.55;64.07;;
74504;Laerm;62988;55.776;37.544;2022-11-15T03:51:05;51.78;47.19;58.20;;
74504;Laerm;62988;55.776;37.544;2022-11-15T03:53:31;54.13;46.68;70.42;;
74504;Laerm;62988;55.776;37.544;2022-11-15T03:55:58;53.61;49.31;74.23;;
74504;Laerm;62988;55.776;37.544;2022-11-15T03:58:23;53.13;47.34;75.76;;
74504;Laerm;62988;55.776;37.544;2022-11-15T04:00:49;53.31;48.13;60.31;;
74504;Laerm;62988;55.776;37.544;2022-11-15T04:03:14;51.75;47.74;57.15;;
74504;Laerm;62988;55.776;37.544;2022-11-15T04:05:40;53.39;48.72;61.43;;
74504;Laerm;62988;55.776;37.544;2022-11-15T04:08:05;53.20;47.61;64.14;;
74504;Laerm;62988;55.776;37.544;2022-11-15T04:10:31;52.53;47.93;58.85;;
74504;Laerm;62988;55.776;37.544;2022-11-15T04:12:56;52.53;47.68;60.83;;
74504;Laerm;62988;55.776;37.544;2022-11-15T04:15:25;53.30;48.35;61.29;;
74504;Laerm;62988;55.776;37.544;2022-11-15T04:17:51;52.95;46.99;59.14;;
74504;Laerm;62988;55.776;37.544;2022-11-15T04:20:30;55.66;49.13;64.25;;
74504;Laerm;62988;55.776;37.544;2022-11-15T04:23:16;54.72;48.99;69.80;;
74504;Laerm;62988;55.776;37.544;2022-11-15T04:26:04;55.96;50.23;73.46;;
74504;Laerm;62988;55.776;37.544;2022-11-15T04:28:30;55.38;48.85;67.67;;
74504;Laerm;62988;55.776;37.544;2022-11-15T04:30:56;53.18;48.24;67.34;;
74504;Laerm;62988;55.776;37.544;2022-11-15T04:33:22;52.79;47.58;65.48;;
74504;Laerm;62988;55.776;37.544;2022-11-15T04:35:48;52.81;47.50;58.71;;
74504;Laerm;62988;55.776;37.544;2022-11-15T04:38:35;53.57;47.35;65.65;;
74504;Laerm;62988;55.776;37.544;2022-11-15T04:41:02;55.88;52.61;61.52;;
74504;Laerm;62988;55.776;37.544;2022-11-15T04:43:28;54.55;49.78;59.68;;
74504;Laerm;62988;55.776;37.544;2022-11-15T04:45:53;53.47;49.35;58.21;;
74504;Laerm;62988;55.776;37.544;2022-11-15T04:48:19;54.09;49.94;64.24;;
74504;Laerm;62988;55.776;37.544;2022-11-15T04:50:48;54.70;49.92;67.80;;
74504;Laerm;62988;55.776;37.544;2022-11-15T04:53:13;53.39;49.41;58.89;;
74504;Laerm;62988;55.776;37.544;2022-11-15T04:55:39;54.01;49.41;61.97;;
74504;Laerm;62988;55.776;37.544;2022-11-15T04:58:04;54.07;48.08;58.94;;
74504;Laerm;62988;55.776;37.544;2022-11-15T05:00:30;55.90;50.51;63.80;;
74504;Laerm;62988;55.776;37.544;2022-11-15T05:02:56;56.01;52.24;62.11;;
74504;Laerm;62988;55.776;37.544;2022-11-15T05:05:41;56.46;50.80;71.09;;
74504;Laerm;62988;55.776;37.544;2022-11-15T05:08:07;56.62;50.74;73.94;;
74504;Laerm;62988;55.776;37.544;2022-11-15T05:10:32;54.54;49.15;63.20;;
74504;Laerm;62988;55.776;37.544;2022-11-15T05:12:58;54.92;49.05;69.16;;
74504;Laerm;62988;55.776;37.544;2022-11-15T05:15:24;54.54;48.75;71.42;;
74504;Laerm;62988;55.776;37.544;2022-11-15T05:17:49;54.62;48.64;66.06;;
74504;Laerm;62988;55.776;37.544;2022-11-15T05:20:15;56.24;50.02;64.89;;
74504;Laerm;62988;55.776;37.544;2022-11-15T05:22:40;55.41;50.51;62.87;;
74504;Laerm;62988;55.776;37.544;2022-11-15T05:25:06;55.98;51.06;79.30;;
74504;Laerm;62988;55.776;37.544;2022-11-15T05:27:32;55.97;50.78;66.27;;
74504;Laerm;62988;55.776;37.544;2022-11-15T05:29:58;57.13;51.39;73.09;;
74504;Laerm;62988;55.776;37.544;2022-11-15T05:32:24;55.54;51.51;60.14;;
74504;Laerm;62988;55.776;37.544;2022-11-15T05:34:50;56.02;51.50;61.08;;
74504;Laerm;62988;55.776;37.544;2022-11-15T05:37:16;56.15;49.31;64.50;;
74504;Laerm;62988;55.776;37.544;2022-11-15T05:39:42;55.49;50.10;64.30;;
74504;Laerm;62988;55.776;37.544;2022-11-15T05:42:13;55.58;49.94;63.12;;
74504;Laerm;62988;55.776;37.544;2022-11-15T05:44:43;54.81;49.13;62.75;;
74504;Laerm;62988;55.776;37.544;2022-11-15T05:47:14;56.11;48.52;69.09;;
74504;Laerm;62988;55.776;37.544;2022-11-15T05:49:42;60.44;55.67;64.86;;
74504;Laerm;62988;55.776;37.544;2022-11-15T05:52:11;60.82;57.46;64.18;;
74504;Laerm;62988;55.776;37.544;2022-11-15T05:54:39;57.40;50.66;67.98;;
74504;Laerm;62988;55.776;37.544;2022-11-15T05:57:06;59.14;52.46;72.83;;
74504;Laerm;62988;55.776;37.544;2022-11-15T05:59:32;58.50;53.79;79.73;;
74504;Laerm;62988;55.776;37.544;2022-11-15T06:01:59;56.59;52.83;65.06;;
74504;Laerm;62988;55.776;37.544;2022-11-15T06:04:25;56.21;52.24;64.34;;
74504;Laerm;62988;55.776;37.544;2022-11-15T06:06:50;57.01;53.28;66.54;;
74504;Laerm;62988;55.776;37.544;2022-11-15T06:09:16;56.48;52.45;64.35;;
74504;Laerm;62988;55.776;37.544;2022-11-15T06:11:41;56.41;48.46;68.78;;
74504;Laerm;62988;55.776;37.544;2022-11-15T06:14:07;54.10;49.37;61.95;;
74504;Laerm;62988;55.776;37.544;2022-11-15T06:16:32;55.03;50.48;64.86;;
74504;Laerm;62988;55.776;37.544;2022-11-15T06:18:58;54.58;50.03;64.93;;
74504;Laerm;62988;55.776;37.544;2022-11-15T06:21:24;55.21;49.85;61.85;;
74504;Laerm;62988;55.776;37.544;2022-11-15T06:23:49;54.52;49.47;65.26;;
74504;Laerm;62988;55.776;37.544;2022-11-15T06:26:15;54.26;49.84;67.47;;
74504;Laerm;62988;55.776;37.544;2022-11-15T06:28:40;54.22;48.88;61.36;;
74504;Laerm;62988;55.776;37.544;2022-11-15T06:31:09;54.92;50.02;62.86;;
74504;Laerm;62988;55.776;37.544;2022-11-15T06:33:34;54.55;48.69;63.35;;
74504;Laerm;62988;55.776;37.544;2022-11-15T06:36:05;55.83;50.43;66.61;;
74504;Laerm;62988;55.776;37.544;2022-11-15T06:38:31;55.17;47.99;61.66;;
74504;Laerm;62988;55.776;37.544;2022-11-15T06:41:04;56.95;48.52;71.14;;
74504;Laerm;62988;55.776;37.544;2022-11-15T06:43:30;54.05;48.33;65.00;;
74504;Laerm;62988;55.776;37.544;2022-11-15T06:46:00;54.69;48.54;64.51;;
74504;Laerm;62988;55.776;37.544;2022-11-15T06:48:27;55.79;48.21;69.85;;
74504;Laerm;62988;55.776;37.544;2022-11-15T06:50:57;58.40;49.26;74.53;;
74504;Laerm;62988;55.776;37.544;2022-11-15T06:53:23;53.79;47.70;62.81;;
74504;Laerm;62988;55.776;37.544;2022-11-15T06:55:49;53.75;48.13;60.70;;
74504;Laerm;62988;55.776;37.544;2022-11-15T06:58:15;54.01;46.40;63.97;;
74504;Laerm;62988;55.776;37.544;2022-11-15T07:00:40;54.17;48.16;65.14;;
74504;Laerm;62988;55.776;37.544;2022-11-15T07:03:06;54.74;46.93;76.18;;
74504;Laerm;62988;55.776;37.544;2022-11-15T07:05:31;53.71;47.56;65.42;;
74504;Laerm;62988;55.776;37.544;2022-11-15T07:07:58;54.75;45.87;71.83;;
74504;Laerm;62988;55.776;37.544;2022-11-15T07:10:24;53.17;46.59;61.99;;
74504;Laerm;62988;55.776;37.544;2022-11-15T07:12:54;53.61;45.29;62.99;;
74504;Laerm;62988;55.776;37.544;2022-11-15T07:15:23;52.82;44.34;59.59;;
74504;Laerm;62988;55.776;37.544;2022-11-15T07:17:49;52.66;44.84;67.62;;
74504;Laerm;62988;55.776;37.544;2022-11-15T07:20:15;53.01;45.60;60.98;;
74504;Laerm;62988;55.776;37.544;2022-11-15T07:22:41;53.71;48.31;65.15;;
74504;Laerm;62988;55.776;37.544;2022-11-15T07:25:08;55.23;48.18;66.62;;
74504;Laerm;62988;55.776;37.544;2022-11-15T07:27:34;53.69;47.61;63.77;;
74504;Laerm;62988;55.776;37.544;2022-11-15T07:30:00;54.25;47.38;60.58;;
74504;Laerm;62988;55.776;37.544;2022-11-15T07:32:25;54.82;46.18;65.67;;
74504;Laerm;62988;55.776;37.544;2022-11-15T07:34:51;54.00;47.82;66.00;;
74504;Laerm;62988;55.776;37.544;2022-11-15T07:37:17;58.52;44.49;70.06;;
74504;Laerm;62988;55.776;37.544;2022-11-15T07:39:43;54.02;45.69;67.48;;
74504;Laerm;62988;55.776;37.544;2022-11-15T07:42:09;54.81;46.54;76.12;;
74504;Laerm;62988;55.776;37.544;2022-11-15T07:44:53;57.60;47.75;73.25;;
74504;Laerm;62988;55.776;37.544;2022-11-15T07:47:19;54.30;47.20;70.86;;
74504;Laerm;62988;55.776;37.544;2022-11-15T07:49:45;55.59;47.34;81.13;;
74504;Laerm;62988;55.776;37.544;2022-11-15T07:52:12;55.23;48.85;70.26;;
74504;Laerm;62988;55.776;37.544;2022-11-15T07:54:37;54.57;47.33;70.04;;
74504;Laerm;62988;55.776;37.544;2022-11-15T07:57:04;58.14;46.86;73.10;;
74504;Laerm;62988;55.776;37.544;2022-11-15T07:59:29;55.14;48.44;70.49;;
74504;Laerm;62988;55.776;37.544;2022-11-15T08:01:55;54.21;48.50;68.92;;
74504;Laerm;62988;55.776;37.544;2022-11-15T08:04:21;55.68;48.92;63.92;;
74504;Laerm;62988;55.776;37.544;2022-11-15T08:06:47;55.49;48.54;73.40;;
74504;Laerm;62988;55.776;37.544;2022-11-15T08:09:12;55.87;50.88;64.62;;
74504;Laerm;62988;55.776;37.544;2022-11-15T08:11:38;55.00;51.17;67.88;;
74504;Laerm;62988;55.776;37.544;2022-11-15T08:14:03;54.72;49.47;65.07;;
74504;Laerm;62988;55.776;37.544;2022-11-15T08:16:29;55.40;49.94;71.39;;
74504;Laerm;62988;55.776;37.544;2022-11-15T08:18:54;55.71;49.97;64.80;;
74504;Laerm;62988;55.776;37.544;2022-11-15T08:21:21;55.26;50.17;67.40;;
74504;Laerm;62988;55.776;37.544;2022-11-15T08:23:46;55.36;50.59;69.35;;
74504;Laerm;62988;55.776;37.544;2022-11-15T08:26:12;55.91;48.97;68.68;;
74504;Laerm;62988;55.776;37.544;2022-11-15T08:28:38;55.52;49.22;66.26;;
74504;Laerm;62988;55.776;37.544;2022-11-15T08:31:04;53.93;49.45;59.51;;
74504;Laerm;62988;55.776;37.544;2022-11-15T08:33:31;54.60;49.34;63.74;;
74504;Laerm;62988;55.776;37.544;2022-11-15T08:35:57;54.00;49.04;68.54;;
74504;Laerm;62988;55.776;37.544;2022-11-15T08:38:23;53.12;47.17;63.56;;
74504;Laerm;62988;55.776;37.544;2022-11-15T08:40:51;53.99;47.51;65.10;;
74504;Laerm;62988;55.776;37.544;2022-11-15T08:43:17;53.66;48.09;63.11;;
74504;Laerm;62988;55.776;37.544;2022-11-15T08:45:43;53.78;48.09;66.38;;
74504;Laerm;62988;55.776;37.544;2022-11-15T08:48:09;54.32;49.12;65.47;;
74504;Laerm;62988;55.776;37.544;2022-11-15T08:50:35;53.09;47.16;69.40;;
74504;Laerm;62988;55.776;37.544;2022-11-15T08:53:07;58.11;48.25;76.41;;
74504;Laerm;62988;55.776;37.544;2022-11-15T08:55:36;52.32;47.47;62.81;;
74504;Laerm;62988;55.776;37.544;2022-11-15T08:58:03;52.70;46.43;66.93;;
74504;Laerm;62988;55.776;37.544;2022-11-15T09:00:29;55.25;48.02;70.08;;
74504;Laerm;62988;55.776;37.544;2022-11-15T09:02:54;52.99;48.38;65.85;;
74504;Laerm;62988;55.776;37.544;2022-11-15T09:05:20;54.79;47.49;66.82;;
74504;Laerm;62988;55.776;37.544;2022-11-15T09:07:45;53.80;48.67;63.03;;
74504;Laerm;62988;55.776;37.544;2022-11-15T09:10:11;53.55;48.25;61.08;;
74504;Laerm;62988;55.776;37.544;2022-11-15T09:12:37;54.16;50.05;63.50;;
74504;Laerm;62988;55.776;37.544;2022-11-15T09:15:03;55.39;50.82;75.11;;
74504;Laerm;62988;55.776;37.544;2022-11-15T09:17:29;55.47;51.04;68.96;;
74504;Laerm;62988;55.776;37.544;2022-11-15T09:19:54;55.55;51.65;64.02;;
74504;Laerm;62988;55.776;37.544;2022-11-15T09:22:20;55.85;50.83;67.19;;
74504;Laerm;62988;55.776;37.544;2022-11-15T09:24:45;55.58;50.41;61.32;;
74504;Laerm;62988;55.776;37.544;2022-11-15T09:27:11;57.00;50.72;72.04;;
74504;Laerm;62988;55.776;37.544;2022-11-15T09:29:37;56.11;52.84;63.25;;
74504;Laerm;62988;55.776;37.544;2022-11-15T09:32:03;56.04;51.56;79.61;;
74504;Laerm;62988;55.776;37.544;2022-11-15T09:34:28;56.69;52.64;62.93;;
74504;Laerm;62988;55.776;37.544;2022-11-15T09:36:54;56.60;52.60;63.46;;
74504;Laerm;62988;55.776;37.544;2022-11-15T09:39:20;56.26;52.53;65.56;;
74504;Laerm;62988;55.776;37.544;2022-11-15T09:41:50;55.86;51.15;68.10;;
74504;Laerm;62988;55.776;37.544;2022-11-15T09:44:42;54.76;49.43;72.39;;
74504;Laerm;62988;55.776;37.544;2022-11-15T09:49:59;55.56;50.52;63.46;;
74504;Laerm;62988;55.776;37.544;2022-11-15T09:52:27;56.11;49.97;70.73;;
74504;Laerm;62988;55.776;37.544;2022-11-15T09:54:53;56.42;50.48;72.58;;
74504;Laerm;62988;55.776;37.544;2022-11-15T09:57:38;54.36;48.58;69.76;;
74504;Laerm;62988;55.776;37.544;2022-11-15T10:00:35;53.85;49.11;59.50;;
74504;Laerm;62988;55.776;37.544;2022-11-15T10:03:13;55.82;49.55;67.13;;
74504;Laerm;62988;55.776;37.544;2022-11-15T10:05:43;55.86;48.21;66.73;;
74504;Laerm;62988;55.776;37.544;2022-11-15T10:08:34;55.16;49.11;64.09;;
74504;Laerm;62988;55.776;37.544;2022-11-15T10:11:23;54.71;50.10;66.78;;
74504;Laerm;62988;55.776;37.544;2022-11-15T10:13:51;54.96;50.41;66.53;;
74504;Laerm;62988;55.776;37.544;2022-11-15T10:24:29;55.39;50.59;60.81;;
74504;Laerm;62988;55.776;37.544;2022-11-15T10:27:00;55.62;50.18;62.24;;
74504;Laerm;62988;55.776;37.544;2022-11-15T10:29:25;55.46;50.37;66.67;;
74504;Laerm;62988;55.776;37.544;2022-11-15T10:31:51;54.50;49.40;60.87;;
74504;Laerm;62988;55.776;37.544;2022-11-15T10:34:22;54.66;47.97;61.34;;
74504;Laerm;62988;55.776;37.544;2022-11-15T10:36:59;54.04;48.01;63.12;;
74504;Laerm;62988;55.776;37.544;2022-11-15T10:39:25;54.08;47.33;62.34;;
74504;Laerm;62988;55.776;37.544;2022-11-15T10:41:51;53.52;46.25;62.56;;
74504;Laerm;62988;55.776;37.544;2022-11-15T10:46:46;55.34;47.94;64.81;;
74504;Laerm;62988;55.776;37.544;2022-11-15T10:49:25;53.64;47.17;65.82;;
74504;Laerm;62988;55.776;37.544;2022-11-15T10:52:19;54.88;49.34;62.30;;
74504;Laerm;62988;55.776;37.544;2022-11-15T10:54:50;57.78;49.32;76.69;;
74504;Laerm;62988;55.776;37.544;2022-11-15T10:57:19;53.45;48.04;59.25;;
74504;Laerm;62988;55.776;37.544;2022-11-15T10:59:50;55.24;48.48;67.43;;
74504;Laerm;62988;55.776;37.544;2022-11-15T11:02:56;53.42;47.69;64.12;;
74504;Laerm;62988;55.776;37.544;2022-11-15T11:05:38;53.75;48.80;62.35;;
74504;Laerm;62988;55.776;37.544;2022-11-15T11:08:19;54.64;48.24;64.89;;
74504;Laerm;62988;55.776;37.544;2022-11-15T11:10:56;55.63;49.02;68.37;;
74504;Laerm;62988;55.776;37.544;2022-11-15T11:21:14;55.83;50.75;65.93;;
74504;Laerm;62988;55.776;37.544;2022-11-15T11:23:56;54.76;49.18;65.92;;
74504;Laerm;62988;55.776;37.544;2022-11-15T11:29:29;55.56;50.31;62.49;;
74504;Laerm;62988;55.776;37.544;2022-11-15T11:35:22;55.49;50.21;64.09;;
74504;Laerm;62988;55.776;37.544;2022-11-15T11:37:51;55.48;50.64;62.40;;
74504;Laerm;62988;55.776;37.544;2022-11-15T11:40:24;55.59;50.09;65.62;;
74504;Laerm;62988;55.776;37.544;2022-11-15T11:43:05;54.80;50.43;59.74;;
74504;Laerm;62988;55.776;37.544;2022-11-15T11:45:44;56.33;50.14;66.86;;
74504;Laerm;62988;55.776;37.544;2022-11-15T11:48:43;56.43;51.55;67.89;;
74504;Laerm;62988;55.776;37.544;2022-11-15T11:51:28;57.33;50.96;66.72;;
74504;Laerm;62988;55.776;37.544;2022-11-15T11:56:33;55.80;50.43;65.46;;
74504;Laerm;62988;55.776;37.544;2022-11-15T11:59:27;55.59;49.51;71.04;;
74504;Laerm;62988;55.776;37.544;2022-11-15T12:01:55;54.23;47.42;65.49;;
74504;Laerm;62988;55.776;37.544;2022-11-15T12:04:32;54.79;49.61;61.31;;
74504;Laerm;62988;55.776;37.544;2022-11-15T12:07:27;55.14;50.04;61.90;;
74504;Laerm;62988;55.776;37.544;2022-11-15T12:12:38;56.39;49.89;65.41;;
74504;Laerm;62988;55.776;37.544;2022-11-15T12:17:37;60.65;48.41;71.41;;
74504;Laerm;62988;55.776;37.544;2022-11-15T12:20:14;53.43;47.31;61.93;;
74504;Laerm;62988;55.776;37.544;2022-11-15T12:26:04;54.05;47.87;59.70;;
74504;Laerm;62988;55.776;37.544;2022-11-15T12:28:44;55.13;50.12;63.61;;
74504;Laerm;62988;55.776;37.544;2022-11-15T12:31:22;54.62;49.19;63.13;;
74504;Laerm;62988;55.776;37.544;2022-11-15T12:33:49;55.59;49.28;66.54;;
74504;Laerm;62988;55.776;37.544;2022-11-15T12:39:05;54.97;50.75;60.80;;
74504;Laerm;62988;55.776;37.544;2022-11-15T13:02:23;54.19;48.37;61.70;;
74504;Laerm;62988;55.776;37.544;2022-11-15T13:04:51;54.46;50.00;74.19;;
74504;Laerm;62988;55.776;37.544;2022-11-15T13:12:55;55.57;49.22;66.96;;
74504;Laerm;62988;55.776;37.544;2022-11-15T13:17:51;55.79;50.11;63.48;;
74504;Laerm;62988;55.776;37.544;2022-11-15T13:20:27;54.82;48.81;64.39;;
74504;Laerm;62988;55.776;37.544;2022-11-15T13:23:12;60.61;49.50;76.39;;
74504;Laerm;62988;55.776;37.544;2022-11-15T13:25:55;55.97;48.42;69.80;;
74504;Laerm;62988;55.776;37.544;2022-11-15T13:34:01;56.22;48.92;68.16;;
74504;Laerm;62988;55.776;37.544;2022-11-15T13:36:32;59.13;48.77;74.36;;
74504;Laerm;62988;55.776;37.544;2022-11-15T13:39:03;54.43;48.48;59.09;;
74504;Laerm;62988;55.776;37.544;2022-11-15T13:41:32;55.27;48.48;62.32;;
74504;Laerm;62988;55.776;37.544;2022-11-15T13:44:00;55.10;49.12;62.29;;
74504;Laerm;62988;55.776;37.544;2022-11-15T13:46:30;55.69;50.54;69.05;;
74504;Laerm;62988;55.776;37.544;2022-11-15T13:49:03;56.09;50.04;63.51;;
74504;Laerm;62988;55.776;37.544;2022-11-15T13:54:15;55.49;50.33;59.87;;
74504;Laerm;62988;55.776;37.544;2022-11-15T13:57:10;55.39;48.56;64.52;;
74504;Laerm;62988;55.776;37.544;2022-11-15T13:59:45;56.11;50.37;71.12;;
74504;Laerm;62988;55.776;37.544;2022-11-15T14:02:15;54.99;49.57;60.50;;
74504;Laerm;62988;55.776;37.544;2022-11-15T14:04:54;55.04;49.68;60.07;;
74504;Laerm;62988;55.776;37.544;2022-11-15T14:07:26;55.74;50.35;64.25;;
74504;Laerm;62988;55.776;37.544;2022-11-15T14:09:53;55.39;50.30;65.53;;
74504;Laerm;62988;55.776;37.544;2022-11-15T14:14:50;58.00;50.81;69.65;;
74504;Laerm;62988;55.776;37.544;2022-11-15T14:19:54;55.78;49.67;67.04;;
74504;Laerm;62988;55.776;37.544;2022-11-15T14:22:25;55.55;49.96;63.25;;
74504;Laerm;62988;55.776;37.544;2022-11-15T14:25:18;56.95;52.80;75.71;;
74504;Laerm;62988;55.776;37.544;2022-11-15T14:28:12;56.66;51.65;73.19;;
74504;Laerm;62988;55.776;37.544;2022-11-15T14:30:42;56.07;51.71;65.34;;
74504;Laerm;62988;55.776;37.544;2022-11-15T14:35:51;54.74;49.77;64.73;;
74504;Laerm;62988;55.776;37.544;2022-11-15T14:38:17;55.03;49.59;60.29;;
74504;Laerm;62988;55.776;37.544;2022-11-15T14:40:43;55.62;50.79;66.63;;
74504;Laerm;62988;55.776;37.544;2022-11-15T14:43:10;55.47;48.55;63.87;;
74504;Laerm;62988;55.776;37.544;2022-11-15T14:45:37;53.91;46.94;68.59;;
74504;Laerm;62988;55.776;37.544;2022-11-15T14:48:03;53.42;48.78;63.45;;
74504;Laerm;62988;55.776;37.544;2022-11-15T14:50:28;54.88;49.93;68.74;;
74504;Laerm;62988;55.776;37.544;2022-11-15T14:52:54;54.75;48.86;71.58;;
74504;Laerm;62988;55.776;37.544;2022-11-15T14:55:27;53.54;49.04;66.24;;
74504;Laerm;62988;55.776;37.544;2022-11-15T14:57:54;53.88;48.37;64.32;;
74504;Laerm;62988;55.776;37.544;2022-11-15T15:00:21;54.81;49.35;66.90;;
74504;Laerm;62988;55.776;37.544;2022-11-15T15:02:48;54.49;49.61;65.26;;
74504;Laerm;62988;55.776;37.544;2022-11-15T15:07:44;55.54;49.16;65.41;;
74504;Laerm;62988;55.776;37.544;2022-11-15T15:10:11;61.75;50.85;77.78;;
74504;Laerm;62988;55.776;37.544;2022-11-15T15:12:37;55.95;49.49;70.71;;
74504;Laerm;62988;55.776;37.544;2022-11-15T15:15:03;55.29;49.87;65.84;;
74504;Laerm;62988;55.776;37.544;2022-11-15T15:17:28;57.67;51.29;68.75;;
74504;Laerm;62988;55.776;37.544;2022-11-15T15:19:54;55.98;51.73;70.49;;
74504;Laerm;62988;55.776;37.544;2022-11-15T15:22:20;55.88;49.56;78.39;;
74504;Laerm;62988;55.776;37.544;2022-11-15T15:24:50;54.64;49.53;65.55;;
74504;Laerm;62988;55.776;37.544;2022-11-15T15:27:16;54.52;49.86;59.03;;
74504;Laerm;62988;55.776;37.544;2022-11-15T15:29:42;54.88;50.25;61.51;;
74504;Laerm;62988;55.776;37.544;2022-11-15T15:32:08;55.11;49.46;77.72;;
74504;Laerm;62988;55.776;37.544;2022-11-15T15:34:34;54.57;49.70;66.61;;
74504;Laerm;62988;55.776;37.544;2022-11-15T15:39:37;55.49;50.65;62.43;;
74504;Laerm;62988;55.776;37.544;2022-11-15T15:42:03;55.50;50.43;64.46;;